createdAt,value
2023-02-22T00:01:07.001Z,59.8
2023-02-22T00:06:58.764Z,59.8
2023-02-22T00:12:51.043Z,59.7
2023-02-22T00:18:44.733Z,59.6
2023-02-22T00:24:36.252Z,59.6
2023-02-22T00:30:28.772Z,59.6
2023-02-22T00:36:07.354Z,59.5
2023-02-22T00:41:44.274Z,59.4
2023-02-22T00:47:36.913Z,59.4
2023-02-22T00:52:59.049Z,59.4
2023-02-22T00:58:51.733Z,59.3
2023-02-22T01:04:45.966Z,59.3
2023-02-22T01:10:23.528Z,59.2
2023-02-22T01:16:16.681Z,59.1
2023-02-22T01:21:55.206Z,59.1
2023-02-22T01:27:48.286Z,59.1
2023-02-22T01:33:25.086Z,59
2023-02-22T01:39:02.393Z,58.9
2023-02-22T01:44:40.790Z,58.9
2023-02-22T01:50:33.063Z,58.8
2023-02-22T01:56:25.323Z,58.8
2023-02-22T02:02:17.772Z,58.8
2023-02-22T02:08:10.400Z,58.7
2023-02-22T02:14:02.905Z,58.6
2023-02-22T02:25:01.820Z,58.5
2023-02-22T02:30:38.729Z,58.5
2023-02-22T02:36:33.114Z,58.4
2023-02-22T02:42:25.979Z,58.4
2023-02-22T02:47:48.138Z,58.3
2023-02-22T02:53:41.847Z,58.3
2023-02-22T02:59:33.064Z,58.3
2023-02-22T03:05:11.039Z,58.2
2023-02-22T03:11:04.712Z,58.1
2023-02-22T03:16:57.443Z,58.1
2023-02-22T03:22:49.497Z,58.1
2023-02-22T03:28:42.671Z,58
2023-02-22T03:34:19.261Z,57.9
2023-02-22T03:40:11.554Z,57.9
2023-02-22T03:45:50.076Z,57.8
2023-02-22T03:51:27.669Z,57.8
2023-02-22T04:02:44.444Z,57.7
2023-02-22T04:08:37.066Z,57.6
2023-02-22T04:13:58.579Z,57.6
2023-02-22T04:19:51.421Z,57.6
2023-02-22T04:25:43.704Z,57.5
2023-02-22T04:31:36.392Z,57.4
2023-02-22T04:37:15.540Z,57.4
2023-02-22T04:42:52.170Z,57.3
2023-02-22T04:48:29.368Z,57.3
2023-02-22T04:54:24.635Z,57.3
2023-02-22T05:00:17.386Z,57.2
2023-02-22T05:05:54.403Z,57.1
2023-02-22T05:11:47.199Z,57.1
2023-02-22T05:17:08.854Z,57
2023-02-22T05:23:01.839Z,56.9
2023-02-22T05:28:54.634Z,56.9
2023-02-22T05:34:48.596Z,56.8
2023-02-22T05:40:41.204Z,56.8
2023-02-22T05:46:34.548Z,56.8
2023-02-22T05:52:12.816Z,56.7
2023-02-22T05:58:06.151Z,56.6
2023-02-22T06:03:59.310Z,56.6
2023-02-22T06:09:35.670Z,56.5
2023-02-22T06:15:27.604Z,56.4
2023-02-22T06:21:20.799Z,56.4
2023-02-22T06:26:57.448Z,56.4
2023-02-22T06:32:35.771Z,56.3
2023-02-22T06:38:13.228Z,56.3
2023-02-22T06:43:50.493Z,56.2
2023-02-22T06:49:28.108Z,56.2
2023-02-22T06:55:07.124Z,56.1
2023-02-22T07:00:44.112Z,56.1
2023-02-22T07:06:23.398Z,56
2023-02-22T07:12:03.877Z,56
2023-02-22T07:17:41.051Z,55.9
2023-02-22T07:23:18.606Z,55.9
2023-02-22T07:28:41.940Z,55.8
2023-02-22T07:34:36.452Z,55.8
2023-02-22T07:40:29.996Z,55.8
2023-02-22T07:46:23.286Z,55.7
2023-02-22T07:52:15.255Z,55.6
2023-02-22T07:58:07.064Z,55.6
2023-02-22T08:04:00.606Z,55.5
2023-02-22T08:09:52.569Z,55.5
2023-02-22T08:15:29.587Z,55.4
2023-02-22T08:21:24.118Z,55.4
2023-02-22T08:27:17.288Z,55.3
2023-02-22T08:33:15.309Z,55.3
2023-02-22T08:39:08.956Z,55.3
2023-02-22T08:45:01.140Z,55.2
2023-02-22T08:50:54.512Z,55.1
2023-02-22T08:56:48.749Z,55.1
2023-02-22T09:02:54.774Z,55.1
2023-02-22T09:08:47.686Z,55
2023-02-22T09:14:43.847Z,55
2023-02-22T09:20:45.263Z,55.2
2023-02-22T09:26:44.999Z,55.4
2023-02-22T09:32:40.540Z,55.6
2023-02-22T09:38:20.034Z,55.9
2023-02-22T09:44:13.380Z,56.2
2023-02-22T09:50:22.425Z,56.6
2023-02-22T09:55:59.591Z,56.8
2023-02-22T10:01:37.658Z,57.1
2023-02-22T10:07:31.273Z,57.4
2023-02-22T10:17:59.319Z,58
2023-02-22T10:23:53.082Z,58.3
2023-02-22T10:29:29.746Z,58.6
2023-02-22T10:35:29.139Z,58.9
2023-02-22T10:41:25.043Z,59.3
2023-02-22T10:46:47.258Z,59.6
2023-02-22T10:52:26.449Z,59.9
2023-02-22T10:58:09.057Z,60.2
2023-02-22T11:03:45.798Z,60.5
2023-02-22T11:09:23.907Z,60.8
2023-02-22T11:15:02.681Z,61.1
2023-02-22T11:20:26.077Z,61.3
2023-02-22T11:26:12.522Z,61.6
2023-02-22T11:31:51.641Z,61.8
2023-02-22T11:37:58.971Z,62.1
2023-02-22T11:43:21.240Z,62.4
2023-02-22T11:49:08.349Z,62.6
2023-02-22T11:55:02.050Z,62.8
2023-02-22T12:00:36.379Z,63
2023-02-22T12:06:39.486Z,63.2
2023-02-22T12:12:37.580Z,63.4
2023-02-22T12:18:40.411Z,63.5
2023-02-22T12:24:34.192Z,63.6
2023-02-22T12:30:26.405Z,63.8
2023-02-22T12:36:05.392Z,63.9
2023-02-22T12:41:55.016Z,63.9
2023-02-22T12:47:47.258Z,63.9
2023-02-22T12:53:52.030Z,63.9
2023-02-22T12:59:29.846Z,64
2023-02-22T13:05:20.691Z,64
2023-02-22T13:11:12.872Z,64
2023-02-22T13:17:07.001Z,64
2023-02-22T13:22:44.280Z,63.9
2023-02-22T13:28:22.758Z,63.9
2023-02-22T13:34:32.482Z,63.9
2023-02-22T13:40:09.862Z,63.9
2023-02-22T13:46:02.924Z,63.9
2023-02-22T13:51:59.894Z,63.8
2023-02-22T13:57:54.358Z,63.8
2023-02-22T14:03:50.000Z,63.8
2023-02-22T14:09:47.412Z,63.7
2023-02-22T14:15:32.052Z,63.6
2023-02-22T14:21:26.735Z,63.6
2023-02-22T14:27:29.856Z,63.6
2023-02-22T14:33:38.772Z,63.5
2023-02-22T14:39:49.439Z,63.5
2023-02-22T14:45:46.396Z,63.4
2023-02-22T14:51:53.295Z,63.4
2023-02-22T14:57:46.076Z,63.3
2023-02-22T15:03:38.857Z,63.3
2023-02-22T15:09:46.678Z,63.3
2023-02-22T15:15:49.575Z,63.2
2023-02-22T15:21:46.203Z,63.1
2023-02-22T15:27:35.526Z,63.1
2023-02-22T15:33:50.441Z,63
2023-02-22T15:39:44.385Z,62.9
2023-02-22T15:45:46.949Z,62.9
2023-02-22T15:51:39.936Z,62.9
2023-02-22T15:57:43.508Z,62.8
2023-02-22T16:03:23.105Z,62.8
2023-02-22T16:09:26.404Z,62.7
2023-02-22T16:15:32.688Z,62.6
2023-02-22T16:21:44.559Z,62.6
2023-02-22T16:27:50.977Z,62.5
2023-02-22T16:33:42.466Z,62.4
2023-02-22T16:39:20.361Z,62.4
2023-02-22T16:44:58.583Z,62.4
2023-02-22T16:50:37.360Z,62.3
2023-02-22T16:56:31.086Z,62.3
2023-02-22T17:02:08.129Z,62.2
2023-02-22T17:08:01.893Z,62.1
2023-02-22T17:13:54.684Z,62.1
2023-02-22T17:19:47.875Z,62.1
2023-02-22T17:25:10.377Z,62
2023-02-22T17:30:48.070Z,61.9
2023-02-22T17:36:42.699Z,61.9
2023-02-22T17:42:36.906Z,61.8
2023-02-22T17:48:29.212Z,61.8
2023-02-22T17:55:02.645Z,61.8
2023-02-22T18:00:24.795Z,61.7
2023-02-22T18:06:17.848Z,61.6
2023-02-22T18:11:40.559Z,61.6
2023-02-22T18:17:18.495Z,61.5
2023-02-22T18:22:56.337Z,61.5
2023-02-22T18:29:01.866Z,61.4
2023-02-22T18:34:56.085Z,61.4
2023-02-22T18:40:49.525Z,61.3
2023-02-22T18:46:43.492Z,61.3
2023-02-22T18:52:37.988Z,61.2
2023-02-22T18:58:34.866Z,61.1
2023-02-22T19:04:28.903Z,61.1
2023-02-22T19:10:23.824Z,61.1
2023-02-22T19:16:17.462Z,61
2023-02-22T19:22:16.283Z,60.9
2023-02-22T19:28:10.883Z,60.9
2023-02-22T19:34:05.004Z,60.8
2023-02-22T19:39:59.472Z,60.8
2023-02-22T19:45:58.146Z,60.8
2023-02-22T19:51:52.457Z,60.7
2023-02-22T19:57:45.623Z,60.6
2023-02-22T20:03:40.257Z,60.6
2023-02-22T20:09:34.045Z,60.5
2023-02-22T20:15:26.655Z,60.4
2023-02-22T20:21:05.014Z,60.4
2023-02-22T20:26:58.627Z,60.4
2023-02-22T20:32:40.503Z,60.3
2023-02-22T20:38:35.634Z,60.3
2023-02-22T20:44:12.780Z,60.2
2023-02-22T20:49:50.107Z,60.1
2023-02-22T20:55:44.066Z,60.1
2023-02-22T21:01:39.989Z,60.1
2023-02-22T21:07:35.332Z,59.9
2023-02-22T21:13:31.758Z,59.9
2023-02-22T21:19:25.486Z,59.9
2023-02-22T21:25:18.423Z,59.8
2023-02-22T21:31:11.191Z,59.8
2023-02-22T21:37:04.821Z,59.7
2023-02-22T21:42:58.192Z,59.7
2023-02-22T21:48:51.843Z,59.6
2023-02-22T21:54:44.665Z,59.6
2023-02-22T22:00:37.510Z,59.5
2023-02-22T22:06:31.195Z,59.4
2023-02-22T22:12:30.922Z,59.4
2023-02-22T22:18:22.748Z,59.4
2023-02-22T22:24:16.049Z,59.3
2023-02-22T22:30:09.048Z,59.3
2023-02-22T22:36:01.977Z,59.2
2023-02-22T22:41:39.666Z,59.1
2023-02-22T22:47:17.489Z,59.1
2023-02-22T22:52:56.680Z,59.1
2023-02-22T22:58:49.656Z,59
2023-02-22T23:04:43.772Z,58.9
2023-02-22T23:10:37.122Z,58.9
2023-02-22T23:16:30.501Z,58.9
2023-02-22T23:22:23.688Z,58.8
2023-02-22T23:28:15.659Z,58.8
2023-02-22T23:33:55.024Z,58.7
2023-02-22T23:39:50.270Z,58.6
2023-02-22T23:56:59.181Z,58.5
